Johnson Creek, Wisconsin
Current Conditions -  °F | °C
As of 2:55 PM on Thursday 18 Dec 2014 (Local Time) from KRYV Reporting Station
Overcast Overcast  
Wind Chill: 20°   Ceiling: 1000
Heat Index: 27°   Visibility: 10mi
Dew Point: 25°   Wind: 6mph
Humidity: 94%   Direction: 340°NNW
Pressure: 30.22"   Gusts: NA
Location:  43.08°N, 88.77°W
Report Text: KRYV 182055Z AUTO 34005KT 10SM OVC010 M03/M04 A3022 RMK AO2 T10291037
Loading
Personal Weather Stations






























Interactive Weather Map New forecast layout! Learn more

10-Day Weather Forecast

Advertisements
Track Severe Weather on mobile